Terminal Aerodrome Forecast
Issued by NWS Cleveland, OH

Home | Current Version | Previous Version | Graphics & Text | Print | Product List | Glossary Off
Versions: 1 2 3 4 5 6 7 8 9 10 11 12 13 14

000
FTUS41 KCLE 212300
TAFMFD
TAF
KMFD 212340Z 2200/2224 22008KT P6SM SCT070 OVC110
     FM220600 22010KT P6SM -SHRA OVC050
      TEMPO 2206/2210 5SM -SHRA BR BKN025
     FM221000 28012KT P6SM OVC009
     FM221400 32012G22KT P6SM OVC012
     FM221800 30015G25KT P6SM SCT030=

USA.gov is the U.S. government's official web portal to all federal, state and local government web resources and services.